createdAt,value
2023-03-29T00:03:47.572Z,18.45
2023-03-29T00:09:15.949Z,19.38
2023-03-29T00:14:42.614Z,18.70
2023-03-29T00:20:10.503Z,18.75
2023-03-29T00:25:37.870Z,18.92
2023-03-29T00:31:11.801Z,17.58
2023-03-29T00:36:40.759Z,17.52
2023-03-29T00:42:13.547Z,18.83
2023-03-29T00:53:22.029Z,19.70
2023-03-29T00:59:10.430Z,18.08
2023-03-29T01:04:54.583Z,18.65
2023-03-29T01:10:31.956Z,20.45
2023-03-29T01:16:02.086Z,18.10
2023-03-29T01:21:45.479Z,20.55
2023-03-29T01:27:22.976Z,19.95
2023-03-29T01:32:59.962Z,21.50
2023-03-29T01:39:03.815Z,22.20
2023-03-29T01:44:43.324Z,22.33
2023-03-29T01:50:19.275Z,22.35
2023-03-29T01:55:54.980Z,19.30
2023-03-29T02:01:29.363Z,20.48
2023-03-29T02:06:59.764Z,21.83
2023-03-29T02:12:27.265Z,21.00
2023-03-29T02:17:54.981Z,19.63
2023-03-29T02:23:27.613Z,28.75
2023-03-29T02:28:56.159Z,27.05
2023-03-29T02:34:27.276Z,23.45
2023-03-29T02:39:55.302Z,23.40
2023-03-29T02:45:24.402Z,21.10
2023-03-29T02:50:56.698Z,19.02
2023-03-29T02:56:24.595Z,17.60
2023-03-29T03:01:53.021Z,16.90
2023-03-29T03:07:21.955Z,17.25
2023-03-29T03:12:50.168Z,15.80
2023-03-29T03:18:17.948Z,13.98
2023-03-29T03:23:46.522Z,12.95
2023-03-29T03:29:16.118Z,13.65
2023-03-29T03:35:05.899Z,12.55
2023-03-29T03:40:33.740Z,13.27
2023-03-29T03:46:01.686Z,13.73
2023-03-29T03:51:31.571Z,12.60
2023-03-29T03:56:59.325Z,11.45
2023-03-29T04:02:39.568Z,12.98
2023-03-29T04:08:08.034Z,14.68
2023-03-29T04:14:03.112Z,13.48
2023-03-29T04:20:01.626Z,12.35
2023-03-29T04:25:33.573Z,12.98
2023-03-29T04:31:37.948Z,13.90
2023-03-29T04:37:25.442Z,13.27
2023-03-29T04:42:54.832Z,12.38
2023-03-29T04:48:22.802Z,12.27
2023-03-29T04:53:51.716Z,12.20
2023-03-29T04:59:19.375Z,12.80
2023-03-29T05:04:47.699Z,13.57
2023-03-29T05:10:17.970Z,13.05
2023-03-29T05:15:45.660Z,13.20
2023-03-29T05:21:14.144Z,12.32
2023-03-29T05:26:45.248Z,11.13
2023-03-29T05:32:13.890Z,11.30
2023-03-29T05:37:42.157Z,11.43
2023-03-29T05:43:09.796Z,11.40
2023-03-29T05:48:37.715Z,10.98
2023-03-29T05:54:05.999Z,10.05
2023-03-29T05:59:35.308Z,9.65
2023-03-29T06:05:04.936Z,9.18
2023-03-29T06:10:57.559Z,9.30
2023-03-29T06:16:42.837Z,8.55
2023-03-29T06:22:14.752Z,8.55
2023-03-29T06:27:43.445Z,8.15
2023-03-29T06:33:13.477Z,8.25
2023-03-29T06:38:47.583Z,7.95
2023-03-29T06:44:40.842Z,8.43
2023-03-29T06:50:18.652Z,7.32
2023-03-29T06:56:12.070Z,7.75
2023-03-29T07:01:43.503Z,5.18
2023-03-29T07:07:20.678Z,6.20
2023-03-29T07:12:53.312Z,6.00
2023-03-29T07:18:21.401Z,6.38
2023-03-29T07:23:49.000Z,7.57
2023-03-29T07:29:16.936Z,6.18
2023-03-29T07:34:44.502Z,6.28
2023-03-29T07:40:35.132Z,6.35
2023-03-29T07:46:21.247Z,5.90
2023-03-29T07:51:50.105Z,5.45
2023-03-29T07:57:18.110Z,5.03
2023-03-29T08:02:52.930Z,5.68
2023-03-29T08:08:21.317Z,5.60
2023-03-29T08:13:56.635Z,5.80
2023-03-29T08:19:51.274Z,5.68
2023-03-29T08:25:22.207Z,5.15
2023-03-29T08:30:53.773Z,5.03
2023-03-29T08:36:22.260Z,4.68
2023-03-29T08:41:58.613Z,5.05
2023-03-29T08:47:54.800Z,4.28
2023-03-29T08:53:37.232Z,4.00
2023-03-29T08:59:30.943Z,3.90
2023-03-29T09:05:18.666Z,4.00
2023-03-29T09:11:23.172Z,4.47
2023-03-29T09:17:10.579Z,4.93
2023-03-29T09:22:44.450Z,4.60
2023-03-29T09:28:22.637Z,4.00
2023-03-29T09:34:09.629Z,4.03
2023-03-29T09:39:53.615Z,4.47
2023-03-29T09:50:54.015Z,5.40
2023-03-29T09:56:21.831Z,5.00
2023-03-29T10:02:09.995Z,4.57
2023-03-29T10:07:47.627Z,4.35
2023-03-29T10:13:50.974Z,5.40
2023-03-29T10:19:36.397Z,4.50
2023-03-29T10:25:05.261Z,4.88
2023-03-29T10:30:37.621Z,4.65
2023-03-29T10:36:07.644Z,4.85
2023-03-29T10:41:36.079Z,4.82
2023-03-29T10:47:19.819Z,4.68
2023-03-29T10:52:48.542Z,4.60
2023-03-29T10:58:15.826Z,4.38
2023-03-29T11:04:16.429Z,4.75
2023-03-29T11:09:57.477Z,4.32
2023-03-29T11:15:48.737Z,4.00
2023-03-29T11:21:45.055Z,3.17
2023-03-29T11:27:17.363Z,3.97
2023-03-29T11:33:09.391Z,4.23
2023-03-29T11:38:48.426Z,3.97
2023-03-29T11:44:21.299Z,3.90
2023-03-29T11:49:54.915Z,4.07
2023-03-29T11:55:29.446Z,4.53
2023-03-29T12:01:04.933Z,4.18
2023-03-29T12:06:45.880Z,4.45
2023-03-29T12:12:46.836Z,4.47
2023-03-29T12:18:40.183Z,4.60
2023-03-29T12:24:13.297Z,4.47
2023-03-29T12:29:52.865Z,4.93
2023-03-29T12:35:34.742Z,4.00
2023-03-29T12:41:23.699Z,3.75
2023-03-29T12:47:00.670Z,3.75
2023-03-29T12:52:33.430Z,3.90
2023-03-29T12:58:07.409Z,4.00
2023-03-29T13:03:52.071Z,3.97
2023-03-29T13:09:23.813Z,3.22
2023-03-29T13:15:17.194Z,4.07
2023-03-29T13:20:45.091Z,4.18
2023-03-29T13:26:27.547Z,4.05
2023-03-29T13:32:13.694Z,3.92
2023-03-29T13:38:00.435Z,4.00
2023-03-29T13:43:51.431Z,3.92
2023-03-29T13:49:26.720Z,4.47
2023-03-29T13:55:02.111Z,4.13
2023-03-29T14:00:42.276Z,4.10
2023-03-29T14:06:13.110Z,4.50
2023-03-29T14:11:46.158Z,4.55
2023-03-29T14:17:21.578Z,4.47
2023-03-29T14:22:50.328Z,4.05
2023-03-29T14:28:31.002Z,3.90
2023-03-29T14:34:01.238Z,3.97
2023-03-29T14:39:29.381Z,3.65
2023-03-29T14:45:06.613Z,4.00
2023-03-29T14:50:36.171Z,3.88
2023-03-29T14:56:08.707Z,4.03
2023-03-29T15:01:44.936Z,3.80
2023-03-29T15:07:12.583Z,4.18
2023-03-29T15:12:43.939Z,4.18
2023-03-29T15:18:17.362Z,4.00
2023-03-29T15:23:56.133Z,3.97
2023-03-29T15:29:26.304Z,3.58
2023-03-29T15:35:06.691Z,3.83
2023-03-29T15:40:34.628Z,4.20
2023-03-29T15:46:03.312Z,4.63
2023-03-29T15:51:31.830Z,4.15
2023-03-29T15:57:07.871Z,4.65
2023-03-29T16:02:36.298Z,5.03
2023-03-29T16:08:04.197Z,5.40
2023-03-29T16:13:32.155Z,5.20
2023-03-29T16:18:59.929Z,5.13
2023-03-29T16:24:33.280Z,5.43
2023-03-29T16:35:32.443Z,6.25
2023-03-29T16:41:00.814Z,4.80
2023-03-29T16:46:29.218Z,5.65
2023-03-29T16:51:56.370Z,5.28
2023-03-29T16:57:24.067Z,5.65
2023-03-29T17:02:51.847Z,4.85
2023-03-29T17:08:21.716Z,6.13
2023-03-29T17:13:50.986Z,6.07
2023-03-29T17:19:19.661Z,6.45
2023-03-29T17:24:48.238Z,5.90
2023-03-29T17:30:15.699Z,6.20
2023-03-29T17:35:44.396Z,5.90
2023-03-29T17:41:11.660Z,6.30
2023-03-29T17:46:39.143Z,6.55
2023-03-29T17:52:06.798Z,6.47
2023-03-29T17:57:34.257Z,7.57
2023-03-29T18:03:02.062Z,8.73
2023-03-29T18:08:31.071Z,9.02
2023-03-29T18:14:00.923Z,8.45
2023-03-29T18:19:28.903Z,7.68
2023-03-29T18:24:56.850Z,7.78
2023-03-29T18:30:24.912Z,7.07
2023-03-29T18:35:53.043Z,7.82
2023-03-29T18:41:21.744Z,7.15
2023-03-29T18:46:50.156Z,6.90
2023-03-29T18:52:17.646Z,7.55
2023-03-29T18:57:45.182Z,7.80
2023-03-29T19:03:13.243Z,8.07
2023-03-29T19:08:42.447Z,8.25
2023-03-29T19:14:11.406Z,6.88
2023-03-29T19:19:40.026Z,6.93
2023-03-29T19:25:08.162Z,7.13
2023-03-29T19:30:36.728Z,7.10
2023-03-29T19:36:04.027Z,8.20
2023-03-29T19:41:32.244Z,8.30
2023-03-29T19:47:00.424Z,8.57
2023-03-29T19:52:28.916Z,9.48
2023-03-29T19:57:55.848Z,9.93
2023-03-29T20:03:23.155Z,9.93
2023-03-29T20:08:53.116Z,10.43
2023-03-29T20:14:20.262Z,10.52
2023-03-29T20:19:48.381Z,9.32
2023-03-29T20:25:16.075Z,7.55
2023-03-29T20:30:43.124Z,8.35
2023-03-29T20:36:11.627Z,8.38
2023-03-29T20:41:39.051Z,8.00
2023-03-29T20:47:08.782Z,7.63
2023-03-29T20:52:36.251Z,7.95
2023-03-29T20:58:03.109Z,7.90
2023-03-29T21:03:30.260Z,8.25
2023-03-29T21:08:57.712Z,8.40
2023-03-29T21:14:26.880Z,8.85
2023-03-29T21:19:55.115Z,9.88
2023-03-29T21:25:22.572Z,9.50
2023-03-29T21:30:50.420Z,8.98
2023-03-29T21:36:18.708Z,8.90
2023-03-29T21:41:46.587Z,9.07
2023-03-29T21:47:14.351Z,10.18
2023-03-29T21:52:41.286Z,10.13
2023-03-29T21:58:08.118Z,10.40
2023-03-29T22:03:35.582Z,10.25
2023-03-29T22:09:03.886Z,10.63
2023-03-29T22:14:35.431Z,10.35
2023-03-29T22:20:04.933Z,10.10
2023-03-29T22:25:32.614Z,10.05
2023-03-29T22:31:09.855Z,9.90
2023-03-29T22:36:38.141Z,10.45
2023-03-29T22:42:05.740Z,10.25
2023-03-29T22:47:34.454Z,10.02
2023-03-29T22:53:01.970Z,9.45
2023-03-29T22:58:29.834Z,9.30
2023-03-29T23:03:57.565Z,8.88
2023-03-29T23:09:24.682Z,8.95
2023-03-29T23:14:53.418Z,9.00
2023-03-29T23:20:21.522Z,10.05
2023-03-29T23:25:49.956Z,9.95
2023-03-29T23:31:20.580Z,10.25
2023-03-29T23:36:47.730Z,9.82
2023-03-29T23:42:16.128Z,9.00
2023-03-29T23:47:45.910Z,9.35
2023-03-29T23:53:14.250Z,7.68
2023-03-29T23:58:42.120Z,8.20
